sensor_id;sensor_type;location;lat;lon;timestamp;pressure;altitude;pressure_sealevel;temperature;humidity
46768;BME280;69007;48.978;18.066;2023-05-01T00:01:17;97872.19;;;7.18;98.33
46768;BME280;69007;48.978;18.066;2023-05-01T00:03:42;97899.97;;;7.13;100.00
46768;BME280;69007;48.978;18.066;2023-05-01T00:06:08;97914.91;;;6.92;100.00
46768;BME280;69007;48.978;18.066;2023-05-01T00:08:33;97882.31;;;6.99;100.00
46768;BME280;69007;48.978;18.066;2023-05-01T00:11:05;97895.84;;;6.87;100.00
46768;BME280;69007;48.978;18.066;2023-05-01T00:13:34;97891.88;;;6.90;100.00
46768;BME280;69007;48.978;18.066;2023-05-01T00:15:59;97893.59;;;6.96;100.00
46768;BME280;69007;48.978;18.066;2023-05-01T00:18:25;97905.50;;;6.83;100.00
46768;BME280;69007;48.978;18.066;2023-05-01T00:20:50;97863.75;;;6.67;100.00
46768;BME280;69007;48.978;18.066;2023-05-01T00:23:15;97909.72;;;6.79;100.00
46768;BME280;69007;48.978;18.066;2023-05-01T00:25:40;97896.44;;;6.77;100.00
46768;BME280;69007;48.978;18.066;2023-05-01T00:28:06;97898.09;;;6.78;100.00
46768;BME280;69007;48.978;18.066;2023-05-01T00:30:32;97904.06;;;6.69;100.00
46768;BME280;69007;48.978;18.066;2023-05-01T00:32:58;97898.31;;;6.65;100.00
46768;BME280;69007;48.978;18.066;2023-05-01T00:35:24;97903.00;;;6.70;100.00
46768;BME280;69007;48.978;18.066;2023-05-01T00:37:49;97857.38;;;6.50;100.00
46768;BME280;69007;48.978;18.066;2023-05-01T00:40:15;97890.78;;;6.79;100.00
46768;BME280;69007;48.978;18.066;2023-05-01T00:42:40;97853.84;;;6.61;100.00
46768;BME280;69007;48.978;18.066;2023-05-01T00:45:06;97892.78;;;6.72;100.00
46768;BME280;69007;48.978;18.066;2023-05-01T00:47:35;97891.13;;;6.59;100.00
46768;BME280;69007;48.978;18.066;2023-05-01T00:50:02;97878.53;;;6.53;100.00
46768;BME280;69007;48.978;18.066;2023-05-01T00:52:28;97881.28;;;6.88;98.46
46768;BME280;69007;48.978;18.066;2023-05-01T00:54:53;97868.44;;;6.83;99.42
46768;BME280;69007;48.978;18.066;2023-05-01T00:57:19;97887.25;;;6.90;99.12
46768;BME280;69007;48.978;18.066;2023-05-01T00:59:45;97878.19;;;7.08;92.55
46768;BME280;69007;48.978;18.066;2023-05-01T01:02:10;97875.34;;;7.27;87.63
46768;BME280;69007;48.978;18.066;2023-05-01T01:04:37;97861.34;;;7.30;87.49
46768;BME280;69007;48.978;18.066;2023-05-01T01:07:10;97884.63;;;7.43;87.56
46768;BME280;69007;48.978;18.066;2023-05-01T01:10:13;97891.78;;;7.61;84.59
46768;BME280;69007;48.978;18.066;2023-05-01T01:13:00;97881.97;;;7.60;83.96
46768;BME280;69007;48.978;18.066;2023-05-01T01:15:34;97882.91;;;7.65;83.57
46768;BME280;69007;48.978;18.066;2023-05-01T01:20:45;97845.16;;;7.47;82.37
46768;BME280;69007;48.978;18.066;2023-05-01T01:23:41;97840.31;;;7.49;81.21
46768;BME280;69007;48.978;18.066;2023-05-01T01:29:39;97884.59;;;7.54;83.02
46768;BME280;69007;48.978;18.066;2023-05-01T01:34:50;97880.31;;;7.59;80.69
46768;BME280;69007;48.978;18.066;2023-05-01T01:37:24;97846.25;;;7.46;80.23
46768;BME280;69007;48.978;18.066;2023-05-01T01:40:02;97865.94;;;7.70;80.61
46768;BME280;69007;48.978;18.066;2023-05-01T01:42:36;97872.00;;;7.48;82.86
46768;BME280;69007;48.978;18.066;2023-05-01T01:45:06;97864.50;;;7.38;81.10
46768;BME280;69007;48.978;18.066;2023-05-01T01:47:35;97872.19;;;7.59;80.97
46768;BME280;69007;48.978;18.066;2023-05-01T01:50:04;97843.06;;;7.37;79.96
46768;BME280;69007;48.978;18.066;2023-05-01T01:52:34;97871.38;;;7.58;80.43
46768;BME280;69007;48.978;18.066;2023-05-01T01:55:04;97845.50;;;7.50;79.48
46768;BME280;69007;48.978;18.066;2023-05-01T01:57:31;97890.81;;;7.55;81.07
46768;BME280;69007;48.978;18.066;2023-05-01T01:59:57;97873.28;;;7.57;79.86
46768;BME280;69007;48.978;18.066;2023-05-01T02:02:23;97869.28;;;7.48;80.35
46768;BME280;69007;48.978;18.066;2023-05-01T02:04:52;97874.84;;;7.42;81.49
46768;BME280;69007;48.978;18.066;2023-05-01T02:07:21;97863.22;;;7.41;82.52
46768;BME280;69007;48.978;18.066;2023-05-01T02:09:48;97861.06;;;7.43;82.15
46768;BME280;69007;48.978;18.066;2023-05-01T02:12:15;97869.56;;;7.35;82.36
46768;BME280;69007;48.978;18.066;2023-05-01T02:14:41;97840.63;;;7.24;81.19
46768;BME280;69007;48.978;18.066;2023-05-01T02:17:08;97875.72;;;7.18;83.21
46768;BME280;69007;48.978;18.066;2023-05-01T02:19:36;97828.78;;;7.13;82.36
46768;BME280;69007;48.978;18.066;2023-05-01T02:22:04;97874.19;;;7.23;83.57
46768;BME280;69007;48.978;18.066;2023-05-01T02:24:31;97807.88;;;6.73;87.73
46768;BME280;69007;48.978;18.066;2023-05-01T02:26:59;97852.19;;;7.07;87.19
46768;BME280;69007;48.978;18.066;2023-05-01T02:29:28;97846.31;;;7.10;84.48
46768;BME280;69007;48.978;18.066;2023-05-01T02:31:53;97816.22;;;6.95;87.10
46768;BME280;69007;48.978;18.066;2023-05-01T02:34:19;97816.78;;;7.09;80.52
46768;BME280;69007;48.978;18.066;2023-05-01T02:36:44;97844.41;;;7.23;83.72
46768;BME280;69007;48.978;18.066;2023-05-01T02:39:10;97844.75;;;7.26;85.78
46768;BME280;69007;48.978;18.066;2023-05-01T02:41:36;97856.56;;;7.08;84.53
46768;BME280;69007;48.978;18.066;2023-05-01T02:44:04;97846.19;;;7.05;87.10
46768;BME280;69007;48.978;18.066;2023-05-01T02:46:34;97847.25;;;7.04;86.84
46768;BME280;69007;48.978;18.066;2023-05-01T02:49:01;97827.41;;;6.75;87.75
46768;BME280;69007;48.978;18.066;2023-05-01T02:51:28;97821.88;;;6.58;88.35
46768;BME280;69007;48.978;18.066;2023-05-01T02:53:56;97852.00;;;6.73;93.43
46768;BME280;69007;48.978;18.066;2023-05-01T02:56:22;97855.84;;;6.54;92.69
46768;BME280;69007;48.978;18.066;2023-05-01T02:58:51;97819.75;;;6.48;91.56
46768;BME280;69007;48.978;18.066;2023-05-01T03:01:16;97853.97;;;6.66;92.11
46768;BME280;69007;48.978;18.066;2023-05-01T03:03:41;97865.97;;;6.58;88.79
46768;BME280;69007;48.978;18.066;2023-05-01T03:06:07;97857.41;;;6.73;91.44
46768;BME280;69007;48.978;18.066;2023-05-01T03:08:32;97859.38;;;6.54;92.74
46768;BME280;69007;48.978;18.066;2023-05-01T03:10:57;97852.47;;;6.70;86.58
46768;BME280;69007;48.978;18.066;2023-05-01T03:13:23;97848.09;;;6.81;85.76
46768;BME280;69007;48.978;18.066;2023-05-01T03:15:48;97847.63;;;6.84;86.13
46768;BME280;69007;48.978;18.066;2023-05-01T03:18:13;97861.97;;;6.96;82.48
46768;BME280;69007;48.978;18.066;2023-05-01T03:20:39;97855.72;;;7.08;82.04
46768;BME280;69007;48.978;18.066;2023-05-01T03:23:04;97848.66;;;7.07;83.37
46768;BME280;69007;48.978;18.066;2023-05-01T03:25:30;97864.91;;;7.07;81.92
46768;BME280;69007;48.978;18.066;2023-05-01T03:27:56;97817.19;;;6.77;83.29
46768;BME280;69007;48.978;18.066;2023-05-01T03:30:21;97840.31;;;7.08;82.83
46768;BME280;69007;48.978;18.066;2023-05-01T03:32:47;97827.97;;;7.00;81.27
46768;BME280;69007;48.978;18.066;2023-05-01T03:35:12;97812.09;;;6.92;80.99
46768;BME280;69007;48.978;18.066;2023-05-01T03:37:37;97866.28;;;7.33;82.20
46768;BME280;69007;48.978;18.066;2023-05-01T03:40:03;97843.16;;;7.42;83.86
46768;BME280;69007;48.978;18.066;2023-05-01T03:42:28;97850.44;;;7.53;82.06
46768;BME280;69007;48.978;18.066;2023-05-01T03:44:54;97839.84;;;7.52;78.04
46768;BME280;69007;48.978;18.066;2023-05-01T03:47:19;97841.78;;;7.68;78.26
46768;BME280;69007;48.978;18.066;2023-05-01T03:49:44;97811.88;;;7.46;78.17
46768;BME280;69007;48.978;18.066;2023-05-01T03:52:10;97810.22;;;7.74;77.61
46768;BME280;69007;48.978;18.066;2023-05-01T03:54:39;97841.34;;;8.17;74.93
46768;BME280;69007;48.978;18.066;2023-05-01T03:57:04;97822.44;;;8.22;73.04
46768;BME280;69007;48.978;18.066;2023-05-01T03:59:29;97850.31;;;9.02;71.64
46768;BME280;69007;48.978;18.066;2023-05-01T04:01:55;97846.22;;;8.83;73.06
46768;BME280;69007;48.978;18.066;2023-05-01T04:04:20;97802.66;;;8.39;72.34
46768;BME280;69007;48.978;18.066;2023-05-01T04:06:45;97782.94;;;8.60;75.68
46768;BME280;69007;48.978;18.066;2023-05-01T04:09:14;97812.41;;;9.35;72.89
46768;BME280;69007;48.978;18.066;2023-05-01T04:11:39;97850.72;;;10.32;68.23
46768;BME280;69007;48.978;18.066;2023-05-01T04:14:04;97819.88;;;9.45;69.18
46768;BME280;69007;48.978;18.066;2023-05-01T04:16:30;97822.41;;;9.73;70.85
46768;BME280;69007;48.978;18.066;2023-05-01T04:18:55;97849.47;;;9.90;73.41
46768;BME280;69007;48.978;18.066;2023-05-01T04:21:21;97848.66;;;11.24;68.92
46768;BME280;69007;48.978;18.066;2023-05-01T04:23:46;97849.56;;;11.46;68.15
46768;BME280;69007;48.978;18.066;2023-05-01T04:26:11;97804.53;;;11.22;70.28
46768;BME280;69007;48.978;18.066;2023-05-01T04:28:37;97867.88;;;10.65;76.07
46768;BME280;69007;48.978;18.066;2023-05-01T04:31:02;97809.19;;;12.21;69.58
46768;BME280;69007;48.978;18.066;2023-05-01T04:33:28;97867.31;;;13.04;65.34
46768;BME280;69007;48.978;18.066;2023-05-01T04:35:53;97866.69;;;14.48;62.38
46768;BME280;69007;48.978;18.066;2023-05-01T04:38:18;97839.91;;;14.79;59.70
46768;BME280;69007;48.978;18.066;2023-05-01T04:40:44;97824.16;;;13.81;66.35
46768;BME280;69007;48.978;18.066;2023-05-01T04:43:09;97860.03;;;15.47;46.70
46768;BME280;69007;48.978;18.066;2023-05-01T04:45:37;97861.53;;;17.57;45.47
46768;BME280;69007;48.978;18.066;2023-05-01T04:48:02;97874.13;;;15.64;46.48
46768;BME280;69007;48.978;18.066;2023-05-01T04:50:27;97853.03;;;15.36;44.55
46768;BME280;69007;48.978;18.066;2023-05-01T04:52:53;97861.22;;;15.89;43.98
46768;BME280;69007;48.978;18.066;2023-05-01T04:55:18;97859.50;;;15.21;44.01
46768;BME280;69007;48.978;18.066;2023-05-01T04:57:43;97863.75;;;14.39;48.01
46768;BME280;69007;48.978;18.066;2023-05-01T05:00:09;97859.88;;;14.80;45.30
46768;BME280;69007;48.978;18.066;2023-05-01T05:02:35;97858.47;;;15.89;43.38
46768;BME280;69007;48.978;18.066;2023-05-01T05:05:00;97849.72;;;16.63;40.97
46768;BME280;69007;48.978;18.066;2023-05-01T05:07:25;97855.91;;;17.35;40.71
46768;BME280;69007;48.978;18.066;2023-05-01T05:09:51;97858.84;;;16.01;43.82
46768;BME280;69007;48.978;18.066;2023-05-01T05:12:16;97860.47;;;15.59;45.09
46768;BME280;69007;48.978;18.066;2023-05-01T05:14:41;97866.78;;;16.60;41.83
46768;BME280;69007;48.978;18.066;2023-05-01T05:17:08;97867.00;;;17.85;40.32
46768;BME280;69007;48.978;18.066;2023-05-01T05:19:33;97856.81;;;18.72;38.23
46768;BME280;69007;48.978;18.066;2023-05-01T05:22:01;97856.44;;;18.65;38.43
46768;BME280;69007;48.978;18.066;2023-05-01T05:24:27;97870.38;;;17.40;42.02
46768;BME280;69007;48.978;18.066;2023-05-01T05:26:52;97848.50;;;19.49;39.47
46768;BME280;69007;48.978;18.066;2023-05-01T05:29:19;97873.81;;;21.87;33.92
46768;BME280;69007;48.978;18.066;2023-05-01T05:31:44;97867.59;;;20.95;34.55
46768;BME280;69007;48.978;18.066;2023-05-01T05:34:09;97872.28;;;22.70;33.36
46768;BME280;69007;48.978;18.066;2023-05-01T05:36:35;97884.00;;;22.04;34.02
46768;BME280;69007;48.978;18.066;2023-05-01T05:39:01;97832.88;;;21.15;35.72
46768;BME280;69007;48.978;18.066;2023-05-01T05:41:27;97870.91;;;21.36;35.79
46768;BME280;69007;48.978;18.066;2023-05-01T05:43:52;97889.44;;;19.56;37.88
46768;BME280;69007;48.978;18.066;2023-05-01T05:46:18;97889.38;;;20.62;35.76
46768;BME280;69007;48.978;18.066;2023-05-01T05:48:44;97879.34;;;19.82;36.94
46768;BME280;69007;48.978;18.066;2023-05-01T05:51:09;97882.34;;;20.21;37.55
46768;BME280;69007;48.978;18.066;2023-05-01T05:53:35;97879.09;;;21.80;35.12
46768;BME280;69007;48.978;18.066;2023-05-01T05:56:00;97889.38;;;25.15;30.74
46768;BME280;69007;48.978;18.066;2023-05-01T05:58:26;97881.63;;;25.09;30.35
46768;BME280;69007;48.978;18.066;2023-05-01T06:00:51;97857.22;;;22.59;32.33
46768;BME280;69007;48.978;18.066;2023-05-01T06:03:20;97890.66;;;20.38;37.42
46768;BME280;69007;48.978;18.066;2023-05-01T06:05:46;97861.25;;;21.04;34.68
46768;BME280;69007;48.978;18.066;2023-05-01T06:08:11;97885.09;;;19.01;40.40
46768;BME280;69007;48.978;18.066;2023-05-01T06:10:41;97877.28;;;17.24;44.55
46768;BME280;69007;48.978;18.066;2023-05-01T06:13:06;97876.63;;;20.00;40.49
46768;BME280;69007;48.978;18.066;2023-05-01T06:15:33;97883.97;;;21.83;36.38
46768;BME280;69007;48.978;18.066;2023-05-01T06:17:58;97881.78;;;24.06;33.29
46768;BME280;69007;48.978;18.066;2023-05-01T06:20:24;97885.00;;;25.90;30.34
46768;BME280;69007;48.978;18.066;2023-05-01T06:22:49;97860.41;;;24.35;32.16
46768;BME280;69007;48.978;18.066;2023-05-01T06:25:15;97888.47;;;22.68;33.58
46768;BME280;69007;48.978;18.066;2023-05-01T06:27:41;97872.41;;;21.33;37.47
46768;BME280;69007;48.978;18.066;2023-05-01T06:30:07;97859.81;;;20.71;38.77
46768;BME280;69007;48.978;18.066;2023-05-01T06:32:33;97839.09;;;18.65;40.05
46768;BME280;69007;48.978;18.066;2023-05-01T06:34:59;97857.72;;;17.11;45.17
46768;BME280;69007;48.978;18.066;2023-05-01T06:37:24;97847.94;;;14.70;49.67
46768;BME280;69007;48.978;18.066;2023-05-01T06:39:49;97883.03;;;15.99;49.58
46768;BME280;69007;48.978;18.066;2023-05-01T06:42:15;97878.50;;;15.12;51.70
46768;BME280;69007;48.978;18.066;2023-05-01T06:44:43;97875.16;;;15.44;50.52
46768;BME280;69007;48.978;18.066;2023-05-01T06:47:09;97853.09;;;15.55;52.16
46768;BME280;69007;48.978;18.066;2023-05-01T06:49:34;97870.88;;;13.90;54.39
46768;BME280;69007;48.978;18.066;2023-05-01T06:52:00;97849.72;;;15.15;50.77
46768;BME280;69007;48.978;18.066;2023-05-01T06:54:27;97870.41;;;15.02;51.56
46768;BME280;69007;48.978;18.066;2023-05-01T06:56:53;97850.00;;;15.13;54.32
46768;BME280;69007;48.978;18.066;2023-05-01T06:59:18;97864.66;;;14.69;53.05
46768;BME280;69007;48.978;18.066;2023-05-01T07:01:44;97875.50;;;13.95;53.63
46768;BME280;69007;48.978;18.066;2023-05-01T07:04:09;97874.63;;;14.49;54.52
46768;BME280;69007;48.978;18.066;2023-05-01T07:06:35;97883.19;;;15.36;52.92
46768;BME280;69007;48.978;18.066;2023-05-01T07:09:01;97839.72;;;15.00;53.76
46768;BME280;69007;48.978;18.066;2023-05-01T07:11:27;97879.69;;;14.71;52.96
46768;BME280;69007;48.978;18.066;2023-05-01T07:13:53;97855.31;;;15.28;53.20
46768;BME280;69007;48.978;18.066;2023-05-01T07:16:18;97849.44;;;15.64;50.69
46768;BME280;69007;48.978;18.066;2023-05-01T07:18:44;97863.38;;;15.44;50.74
46768;BME280;69007;48.978;18.066;2023-05-01T07:21:10;97831.44;;;14.76;53.87
46768;BME280;69007;48.978;18.066;2023-05-01T07:23:36;97884.03;;;15.60;51.73
46768;BME280;69007;48.978;18.066;2023-05-01T07:26:02;97853.09;;;15.30;52.84
46768;BME280;69007;48.978;18.066;2023-05-01T07:28:28;97875.53;;;15.86;53.08
46768;BME280;69007;48.978;18.066;2023-05-01T07:30:53;97870.03;;;15.38;53.32
46768;BME280;69007;48.978;18.066;2023-05-01T07:33:19;97852.34;;;14.96;52.01
46768;BME280;69007;48.978;18.066;2023-05-01T07:35:44;97835.38;;;15.23;52.92
46768;BME280;69007;48.978;18.066;2023-05-01T07:38:10;97879.53;;;15.70;54.99
46768;BME280;69007;48.978;18.066;2023-05-01T07:40:36;97841.53;;;15.82;53.81
46768;BME280;69007;48.978;18.066;2023-05-01T07:43:02;97866.75;;;15.36;53.89
46768;BME280;69007;48.978;18.066;2023-05-01T07:45:28;97864.63;;;15.81;54.76
46768;BME280;69007;48.978;18.066;2023-05-01T07:47:53;97825.56;;;15.41;55.08
46768;BME280;69007;48.978;18.066;2023-05-01T07:50:19;97830.66;;;16.15;58.89
46768;BME280;69007;48.978;18.066;2023-05-01T07:52:44;97851.28;;;16.50;54.47
46768;BME280;69007;48.978;18.066;2023-05-01T07:55:10;97831.09;;;15.84;57.90
46768;BME280;69007;48.978;18.066;2023-05-01T07:57:36;97854.44;;;15.57;59.67
46768;BME280;69007;48.978;18.066;2023-05-01T08:00:01;97876.94;;;15.59;55.93
46768;BME280;69007;48.978;18.066;2023-05-01T08:02:26;97870.66;;;16.21;54.14
46768;BME280;69007;48.978;18.066;2023-05-01T08:04:52;97855.03;;;15.78;57.17
46768;BME280;69007;48.978;18.066;2023-05-01T08:07:17;97835.25;;;14.40;59.81
46768;BME280;69007;48.978;18.066;2023-05-01T08:09:43;97860.34;;;15.21;62.17
46768;BME280;69007;48.978;18.066;2023-05-01T08:12:08;97819.75;;;15.23;60.13
46768;BME280;69007;48.978;18.066;2023-05-01T08:14:34;97844.38;;;15.53;59.91
46768;BME280;69007;48.978;18.066;2023-05-01T08:16:59;97863.00;;;15.75;64.57
46768;BME280;69007;48.978;18.066;2023-05-01T08:19:24;97858.22;;;15.13;59.73
46768;BME280;69007;48.978;18.066;2023-05-01T08:21:52;97844.75;;;15.65;58.33
46768;BME280;69007;48.978;18.066;2023-05-01T08:24:17;97857.06;;;15.92;61.17
46768;BME280;69007;48.978;18.066;2023-05-01T08:26:43;97866.84;;;15.74;60.03
46768;BME280;69007;48.978;18.066;2023-05-01T08:29:08;97864.25;;;15.39;59.97
46768;BME280;69007;48.978;18.066;2023-05-01T08:31:34;97860.28;;;15.51;64.17
46768;BME280;69007;48.978;18.066;2023-05-01T08:34:02;97824.50;;;15.85;63.06
46768;BME280;69007;48.978;18.066;2023-05-01T08:36:27;97833.97;;;15.25;63.43
46768;BME280;69007;48.978;18.066;2023-05-01T08:38:52;97866.91;;;15.20;60.72
46768;BME280;69007;48.978;18.066;2023-05-01T08:41:20;97826.09;;;16.10;60.63
46768;BME280;69007;48.978;18.066;2023-05-01T08:43:47;97831.88;;;15.41;61.77
46768;BME280;69007;48.978;18.066;2023-05-01T08:46:14;97859.59;;;14.81;64.58
46768;BME280;69007;48.978;18.066;2023-05-01T08:48:43;97842.78;;;15.46;66.77
46768;BME280;69007;48.978;18.066;2023-05-01T08:51:10;97829.56;;;15.29;60.47
46768;BME280;69007;48.978;18.066;2023-05-01T08:53:37;97863.47;;;15.34;60.69
46768;BME280;69007;48.978;18.066;2023-05-01T08:56:05;97871.91;;;16.48;57.79
46768;BME280;69007;48.978;18.066;2023-05-01T08:58:32;97870.88;;;17.28;58.34
46768;BME280;69007;48.978;18.066;2023-05-01T09:01:00;97846.91;;;16.49;57.59
46768;BME280;69007;48.978;18.066;2023-05-01T09:03:29;97867.44;;;16.90;59.07
46768;BME280;69007;48.978;18.066;2023-05-01T09:05:56;97833.47;;;15.66;66.13
46768;BME280;69007;48.978;18.066;2023-05-01T09:08:21;97835.53;;;15.56;61.61
46768;BME280;69007;48.978;18.066;2023-05-01T09:10:49;97869.38;;;16.51;60.94
46768;BME280;69007;48.978;18.066;2023-05-01T09:13:16;97838.53;;;16.02;60.71
46768;BME280;69007;48.978;18.066;2023-05-01T09:15:41;97822.75;;;15.70;68.63
46768;BME280;69007;48.978;18.066;2023-05-01T09:18:10;97842.50;;;17.00;63.49
46768;BME280;69007;48.978;18.066;2023-05-01T09:20:36;97856.09;;;17.24;59.69
46768;BME280;69007;48.978;18.066;2023-05-01T09:23:02;97815.56;;;17.30;60.09
46768;BME280;69007;48.978;18.066;2023-05-01T09:25:28;97857.84;;;17.76;56.39
46768;BME280;69007;48.978;18.066;2023-05-01T09:27:53;97793.16;;;15.67;60.79
46768;BME280;69007;48.978;18.066;2023-05-01T09:30:37;97854.28;;;16.68;62.90
46768;BME280;69007;48.978;18.066;2023-05-01T09:33:10;97807.94;;;17.41;59.57
46768;BME280;69007;48.978;18.066;2023-05-01T09:35:55;97809.00;;;16.65;58.15
46768;BME280;69007;48.978;18.066;2023-05-01T09:38:23;97836.91;;;16.20;60.82
46768;BME280;69007;48.978;18.066;2023-05-01T09:40:49;97805.28;;;15.85;60.18
46768;BME280;69007;48.978;18.066;2023-05-01T09:43:27;97839.00;;;16.29;61.62
46768;BME280;69007;48.978;18.066;2023-05-01T09:46:03;97829.09;;;16.80;59.26
46768;BME280;69007;48.978;18.066;2023-05-01T09:48:34;97830.22;;;17.25;61.05
46768;BME280;69007;48.978;18.066;2023-05-01T09:51:00;97833.41;;;17.46;61.12
46768;BME280;69007;48.978;18.066;2023-05-01T09:53:39;97827.47;;;16.79;59.82
46768;BME280;69007;48.978;18.066;2023-05-01T09:56:04;97808.56;;;16.58;59.81
46768;BME280;69007;48.978;18.066;2023-05-01T09:58:30;97818.88;;;16.66;61.28
46768;BME280;69007;48.978;18.066;2023-05-01T10:00:57;97790.47;;;15.86;59.99
46768;BME280;69007;48.978;18.066;2023-05-01T10:03:22;97775.50;;;15.54;62.50
46768;BME280;69007;48.978;18.066;2023-05-01T10:05:48;97800.34;;;16.25;63.55
46768;BME280;69007;48.978;18.066;2023-05-01T10:08:13;97788.97;;;17.11;60.79
46768;BME280;69007;48.978;18.066;2023-05-01T10:10:41;97779.22;;;17.19;60.80
46768;BME280;69007;48.978;18.066;2023-05-01T10:13:17;97808.72;;;17.55;59.82
46768;BME280;69007;48.978;18.066;2023-05-01T10:15:46;97823.09;;;17.94;60.55
46768;BME280;69007;48.978;18.066;2023-05-01T10:18:11;97774.72;;;17.09;58.04
46768;BME280;69007;48.978;18.066;2023-05-01T10:20:38;97804.25;;;17.18;62.44
46768;BME280;69007;48.978;18.066;2023-05-01T10:23:03;97807.56;;;16.68;63.61
46768;BME280;69007;48.978;18.066;2023-05-01T10:25:30;97804.78;;;16.73;63.52
46768;BME280;69007;48.978;18.066;2023-05-01T10:27:56;97806.63;;;16.26;62.71
46768;BME280;69007;48.978;18.066;2023-05-01T10:30:22;97732.34;;;15.84;63.29
46768;BME280;69007;48.978;18.066;2023-05-01T10:32:48;97804.94;;;16.11;61.83
46768;BME280;69007;48.978;18.066;2023-05-01T10:35:26;97765.38;;;16.45;61.82
46768;BME280;69007;48.978;18.066;2023-05-01T10:38:01;97751.78;;;16.86;64.42
46768;BME280;69007;48.978;18.066;2023-05-01T10:43:28;97785.56;;;17.70;66.29
46768;BME280;69007;48.978;18.066;2023-05-01T10:51:17;97774.41;;;16.97;61.51
46768;BME280;69007;48.978;18.066;2023-05-01T10:53:45;97784.28;;;16.65;61.24
46768;BME280;69007;48.978;18.066;2023-05-01T11:04:06;97765.50;;;17.69;58.48
46768;BME280;69007;48.978;18.066;2023-05-01T11:06:35;97764.47;;;17.79;59.19
46768;BME280;69007;48.978;18.066;2023-05-01T11:09:40;97760.94;;;17.37;58.58
46768;BME280;69007;48.978;18.066;2023-05-01T11:12:07;97764.50;;;17.65;59.54
46768;BME280;69007;48.978;18.066;2023-05-01T11:20:09;97750.34;;;17.58;58.27
46768;BME280;69007;48.978;18.066;2023-05-01T11:22:37;97756.75;;;17.67;65.04
46768;BME280;69007;48.978;18.066;2023-05-01T11:27:56;97754.94;;;17.07;63.15
46768;BME280;69007;48.978;18.066;2023-05-01T11:30:23;97744.78;;;17.22;64.12
46768;BME280;69007;48.978;18.066;2023-05-01T11:32:50;97738.28;;;17.18;65.66
46768;BME280;69007;48.978;18.066;2023-05-01T11:35:23;97739.00;;;16.63;64.53
46768;BME280;69007;48.978;18.066;2023-05-01T11:37:49;97747.44;;;17.13;61.80
46768;BME280;69007;48.978;18.066;2023-05-01T11:42:47;97717.50;;;17.76;66.03
46768;BME280;69007;48.978;18.066;2023-05-01T11:45:13;97726.44;;;17.31;62.20
46768;BME280;69007;48.978;18.066;2023-05-01T11:47:39;97715.28;;;17.50;61.28
46768;BME280;69007;48.978;18.066;2023-05-01T11:50:05;97719.97;;;18.00;66.08
46768;BME280;69007;48.978;18.066;2023-05-01T11:52:46;97718.34;;;18.44;66.55
46768;BME280;69007;48.978;18.066;2023-05-01T11:55:14;97723.00;;;17.76;61.08
46768;BME280;69007;48.978;18.066;2023-05-01T11:57:47;97714.72;;;17.90;61.54
46768;BME280;69007;48.978;18.066;2023-05-01T12:00:14;97708.97;;;18.00;64.71
46768;BME280;69007;48.978;18.066;2023-05-01T12:05:22;97716.75;;;17.47;63.35
46768;BME280;69007;48.978;18.066;2023-05-01T12:07:47;97728.63;;;17.57;65.24
46768;BME280;69007;48.978;18.066;2023-05-01T12:10:13;97715.41;;;18.18;69.08
46768;BME280;69007;48.978;18.066;2023-05-01T12:12:40;97725.53;;;17.36;63.08
46768;BME280;69007;48.978;18.066;2023-05-01T12:15:05;97718.66;;;17.61;64.01
46768;BME280;69007;48.978;18.066;2023-05-01T12:17:31;97715.03;;;18.11;63.01
46768;BME280;69007;48.978;18.066;2023-05-01T12:19:57;97710.47;;;18.29;60.95
46768;BME280;69007;48.978;18.066;2023-05-01T12:22:22;97690.94;;;18.16;63.06
46768;BME280;69007;48.978;18.066;2023-05-01T12:24:50;97705.34;;;17.91;61.61
46768;BME280;69007;48.978;18.066;2023-05-01T12:27:17;97703.09;;;18.38;63.68
46768;BME280;69007;48.978;18.066;2023-05-01T12:29:42;97709.22;;;17.90;60.96
46768;BME280;69007;48.978;18.066;2023-05-01T12:32:11;97638.56;;;18.08;60.01
46768;BME280;69007;48.978;18.066;2023-05-01T12:34:36;97680.22;;;18.15;58.06
46768;BME280;69007;48.978;18.066;2023-05-01T12:37:02;97659.00;;;18.38;63.26
46768;BME280;69007;48.978;18.066;2023-05-01T12:39:35;97670.75;;;18.84;58.79
46768;BME280;69007;48.978;18.066;2023-05-01T12:42:02;97675.25;;;18.79;58.61
46768;BME280;69007;48.978;18.066;2023-05-01T12:44:35;97669.81;;;18.34;59.65
46768;BME280;69007;48.978;18.066;2023-05-01T12:47:08;97682.47;;;18.67;65.34
46768;BME280;69007;48.978;18.066;2023-05-01T12:49:34;97639.81;;;18.01;60.51
46768;BME280;69007;48.978;18.066;2023-05-01T12:52:06;97669.69;;;18.39;63.40
46768;BME280;69007;48.978;18.066;2023-05-01T12:54:35;97660.75;;;17.66;60.19
46768;BME280;69007;48.978;18.066;2023-05-01T12:59:32;97635.78;;;18.30;59.09
46768;BME280;69007;48.978;18.066;2023-05-01T13:01:59;97642.94;;;17.86;60.29
46768;BME280;69007;48.978;18.066;2023-05-01T13:04:25;97650.47;;;17.94;56.73
46768;BME280;69007;48.978;18.066;2023-05-01T13:06:52;97647.41;;;17.96;59.06
46768;BME280;69007;48.978;18.066;2023-05-01T13:09:23;97642.13;;;18.08;60.47
46768;BME280;69007;48.978;18.066;2023-05-01T13:12:02;97662.28;;;18.17;62.20
46768;BME280;69007;48.978;18.066;2023-05-01T13:14:36;97615.84;;;17.79;60.01
46768;BME280;69007;48.978;18.066;2023-05-01T13:17:11;97617.63;;;17.75;63.40
46768;BME280;69007;48.978;18.066;2023-05-01T13:19:37;97605.72;;;17.66;61.27
46768;BME280;69007;48.978;18.066;2023-05-01T13:22:04;97626.22;;;17.82;61.02
46768;BME280;69007;48.978;18.066;2023-05-01T13:27:01;97634.63;;;18.00;58.04
46768;BME280;69007;48.978;18.066;2023-05-01T13:29:27;97636.91;;;18.29;56.37
46768;BME280;69007;48.978;18.066;2023-05-01T13:31:53;97613.91;;;18.25;60.18
46768;BME280;69007;48.978;18.066;2023-05-01T13:34:29;97611.69;;;17.45;56.53
46768;BME280;69007;48.978;18.066;2023-05-01T13:36:56;97583.38;;;17.67;60.95